Airfield :
LOGIN :

Register | Disclaimer

   EN    FR    IT 

 










Legend :    VFR   Marginal VFR   IFR   Intensive IFR   Very Intensive IFR
Visi :
Ceiling :
>= 8 km
>= 3000ft
5 to 8 km
1000 to 3000 ft
1500m to 5 km
500 to 1000 ft
800 to 1500m
200 to 500 ft
< 800m
< 200 ft
Symbols :   Thunderstorms  Fog  Heavy snow  Heavy precipitations  Wind > 20 kt
SIGMETs :     Misc.  Thunderstorms  Icing  Turbulence  Mountain Waves  Volcanic Ashes






- Airport Elevation : 2595 ft
- IATA code : SLM


LESA - Salamanca Matacan

CURRENT METAR :
  • 250530Z AUTO 08001KT 9999 -UP BKN049 03/03 Q1014

EXPIRED METARs :
  • 250500Z AUTO 00000KT 9999 -UP SCT043 02/01 Q1014
  • 250430Z AUTO 00000KT 9999 FEW042 SCT048 01/01 Q1015
  • 250400Z AUTO VRB01KT CAVOK 01/00 Q1015
  • 250330Z AUTO 07003KT CAVOK 02/01 Q1015
  • 250300Z AUTO VRB02KT CAVOK 01/01 Q1015

TAF TAF LESA
Valid from the 25 at 00:00 until the 26 at 00:00 UTC


242300Z 2500/2524 VRB05KT 9999 SCT030 BKN040 TX07/2515Z TN01/2506Z
PROB30
TEMPO 2500/2506 0300 FG BKN003
PROB40
TEMPO 2500/2515 2000 RA BR BKN010



MET'MAP, your aeronautical weather chart ! - Copyright ORBIFLY December 2007 - Disclaimer

ORBIFLY MET'MAP TEAM :

Programming & Development : Alexandra Zaïnal
Concept & original design : Baudouin d'Aumeries
Assistance for programming : Marc-Olivier Méhu
Technical & hardware support : Manuel Goepfert

Contact : metmap@orbifly.com




SOURCES & CREDITS :

   NOAA